createdAt,value
2023-02-13T00:01:27.308Z,51.00
2023-02-13T00:03:55.487Z,51.30
2023-02-13T00:06:25.085Z,52.00
2023-02-13T00:08:53.122Z,52.80
2023-02-13T00:11:21.131Z,53.00
2023-02-13T00:13:49.214Z,52.50
2023-02-13T00:16:17.342Z,52.50
2023-02-13T00:18:45.345Z,52.50
2023-02-13T00:21:14.287Z,52.50
2023-02-13T00:23:44.394Z,53.10
2023-02-13T00:26:13.189Z,53.20
2023-02-13T00:28:45.787Z,52.90
2023-02-13T00:31:14.665Z,52.80
2023-02-13T00:33:43.327Z,52.20
2023-02-13T00:36:13.768Z,52.00
2023-02-13T00:38:42.445Z,52.20
2023-02-13T00:41:11.962Z,52.60
2023-02-13T00:43:40.454Z,52.20
2023-02-13T00:46:08.550Z,52.10
2023-02-13T00:48:36.632Z,52.00
2023-02-13T00:51:07.063Z,52.50
2023-02-13T00:53:35.843Z,52.00
2023-02-13T00:56:04.096Z,52.70
2023-02-13T00:58:33.659Z,52.30
2023-02-13T01:01:02.670Z,52.20
2023-02-13T01:03:31.008Z,52.60
2023-02-13T01:06:01.409Z,52.60
2023-02-13T01:08:29.815Z,52.70
2023-02-13T01:10:58.155Z,53.30
2023-02-13T01:13:26.359Z,52.90
2023-02-13T01:15:56.845Z,53.90
2023-02-13T01:18:25.250Z,53.50
2023-02-13T01:20:57.759Z,54.10
2023-02-13T01:23:26.366Z,53.30
2023-02-13T01:25:54.604Z,54.00
2023-02-13T01:28:22.686Z,54.40
2023-02-13T01:30:54.033Z,54.40
2023-02-13T01:33:26.287Z,54.30
2023-02-13T01:35:54.485Z,54.60
2023-02-13T01:38:22.783Z,55.80
2023-02-13T01:40:51.818Z,55.70
2023-02-13T01:43:19.951Z,56.70
2023-02-13T01:45:49.626Z,57.00
2023-02-13T01:48:20.351Z,57.20
2023-02-13T01:50:51.722Z,57.30
2023-02-13T01:53:21.879Z,58.20
2023-02-13T01:55:52.769Z,58.40
2023-02-13T01:58:23.874Z,58.60
2023-02-13T02:00:52.028Z,59.80
2023-02-13T02:03:21.777Z,60.40
2023-02-13T02:05:53.263Z,59.90
2023-02-13T02:08:21.926Z,60.30
2023-02-13T02:10:55.114Z,59.40
2023-02-13T02:13:24.761Z,59.80
2023-02-13T02:15:53.112Z,59.90
2023-02-13T02:18:22.288Z,59.50
2023-02-13T02:21:16.770Z,58.80
2023-02-13T02:23:58.838Z,58.30
2023-02-13T02:26:39.628Z,57.30
2023-02-13T02:29:22.508Z,57.00
2023-02-13T02:32:17.324Z,57.00
2023-02-13T02:34:52.498Z,56.30
2023-02-13T02:37:28.807Z,54.40
2023-02-13T02:40:01.982Z,54.30
2023-02-13T02:42:32.582Z,54.20
2023-02-13T02:45:06.368Z,54.30
2023-02-13T02:47:58.437Z,54.60
2023-02-13T02:50:32.471Z,54.40
2023-02-13T02:53:09.855Z,54.30
2023-02-13T02:55:44.269Z,54.80
2023-02-13T02:58:35.021Z,54.50
2023-02-13T03:01:22.367Z,54.60
2023-02-13T03:04:10.934Z,54.70
2023-02-13T03:06:41.349Z,55.70
2023-02-13T03:09:29.429Z,54.80
2023-02-13T03:12:14.992Z,55.40
2023-02-13T03:14:44.489Z,55.40
2023-02-13T03:17:31.457Z,55.30
2023-02-13T03:20:25.973Z,55.40
2023-02-13T03:23:02.801Z,55.20
2023-02-13T03:25:34.393Z,55.50
2023-02-13T03:28:25.737Z,55.80
2023-02-13T03:30:58.798Z,55.60
2023-02-13T03:33:40.233Z,56.40
2023-02-13T03:36:33.938Z,56.70
2023-02-13T03:39:07.368Z,56.50
2023-02-13T03:41:39.314Z,57.10
2023-02-13T03:44:11.970Z,56.70
2023-02-13T03:46:41.905Z,57.00
2023-02-13T03:49:34.449Z,57.80
2023-02-13T03:52:06.180Z,56.80
2023-02-13T03:54:53.412Z,56.80
2023-02-13T03:57:39.951Z,56.40
2023-02-13T04:00:10.784Z,56.90
2023-02-13T04:02:46.036Z,57.00
2023-02-13T04:05:16.895Z,56.90
2023-02-13T04:07:46.226Z,56.60
2023-02-13T04:10:15.331Z,56.40
2023-02-13T04:12:47.307Z,56.60
2023-02-13T04:15:17.617Z,56.70
2023-02-13T04:17:47.416Z,56.60
2023-02-13T04:20:15.589Z,56.40
2023-02-13T04:22:44.024Z,56.90
2023-02-13T04:25:14.657Z,57.50
2023-02-13T04:27:42.611Z,57.70
2023-02-13T04:30:11.238Z,58.30
2023-02-13T04:32:39.202Z,57.80
2023-02-13T04:35:07.523Z,57.80
2023-02-13T04:37:35.620Z,57.80
2023-02-13T04:40:03.604Z,57.50
2023-02-13T04:42:33.032Z,57.40
2023-02-13T04:45:01.077Z,57.20
2023-02-13T04:47:29.089Z,57.10
2023-02-13T04:49:57.139Z,57.00
2023-02-13T04:52:25.263Z,56.90
2023-02-13T04:54:54.138Z,57.20
2023-02-13T04:57:22.223Z,57.30
2023-02-13T04:59:51.557Z,57.40
2023-02-13T05:02:19.454Z,57.10
2023-02-13T05:04:47.580Z,56.90
2023-02-13T05:07:15.567Z,56.00
2023-02-13T05:09:43.589Z,55.40
2023-02-13T05:12:11.553Z,54.80
2023-02-13T05:14:39.886Z,54.90
2023-02-13T05:17:09.335Z,54.70
2023-02-13T05:19:37.327Z,54.80
2023-02-13T05:22:23.316Z,54.70
2023-02-13T05:24:51.278Z,53.60
2023-02-13T05:27:19.267Z,54.80
2023-02-13T05:29:47.250Z,54.80
2023-02-13T05:32:16.600Z,55.20
2023-02-13T05:34:44.617Z,54.70
2023-02-13T05:37:12.619Z,54.40
2023-02-13T05:39:40.837Z,54.80
2023-02-13T05:42:10.212Z,55.10
2023-02-13T05:44:38.140Z,54.90
2023-02-13T05:47:06.420Z,54.80
2023-02-13T05:49:36.080Z,54.50
2023-02-13T05:52:04.198Z,54.80
2023-02-13T05:54:32.213Z,54.30
2023-02-13T05:57:00.250Z,54.60
2023-02-13T05:59:28.416Z,54.60
2023-02-13T06:01:56.397Z,53.30
2023-02-13T06:04:24.353Z,53.60
2023-02-13T06:06:53.804Z,53.50
2023-02-13T06:09:21.847Z,53.20
2023-02-13T06:11:49.856Z,53.20
2023-02-13T06:14:17.852Z,53.30
2023-02-13T06:16:45.925Z,53.30
2023-02-13T06:19:13.908Z,53.20
2023-02-13T06:21:41.900Z,53.30
2023-02-13T06:24:11.518Z,53.90
2023-02-13T06:26:40.378Z,53.30
2023-02-13T06:29:09.318Z,53.20
2023-02-13T06:31:37.316Z,53.00
2023-02-13T06:34:05.493Z,54.50
2023-02-13T06:36:33.420Z,54.20
2023-02-13T06:39:01.579Z,54.00
2023-02-13T06:41:31.167Z,53.30
2023-02-13T06:43:59.425Z,53.80
2023-02-13T06:46:27.533Z,53.80
2023-02-13T06:48:55.712Z,53.30
2023-02-13T06:51:23.709Z,53.90
2023-02-13T06:53:51.701Z,54.20
2023-02-13T06:56:19.631Z,54.10
2023-02-13T06:58:48.909Z,53.90
2023-02-13T07:01:17.189Z,53.90
2023-02-13T07:03:45.486Z,53.70
2023-02-13T07:06:17.789Z,54.20
2023-02-13T07:08:45.767Z,54.10
2023-02-13T07:11:18.052Z,54.20
2023-02-13T07:13:46.069Z,53.70
2023-02-13T07:16:15.444Z,54.40
2023-02-13T07:18:43.636Z,54.60
2023-02-13T07:21:11.758Z,54.30
2023-02-13T07:23:39.894Z,54.90
2023-02-13T07:26:07.964Z,55.00
2023-02-13T07:28:36.023Z,54.80
2023-02-13T07:31:05.255Z,55.10
2023-02-13T07:33:34.937Z,54.90
2023-02-13T07:36:03.690Z,55.40
2023-02-13T07:38:32.066Z,56.10
2023-02-13T07:41:00.460Z,56.70
2023-02-13T07:43:28.587Z,56.70
2023-02-13T07:45:59.622Z,57.20
2023-02-13T07:48:29.049Z,57.30
2023-02-13T07:51:00.831Z,57.50
2023-02-13T07:53:29.034Z,58.40
2023-02-13T07:55:57.437Z,59.00
2023-02-13T07:58:25.619Z,59.30
2023-02-13T08:00:53.602Z,60.10
2023-02-13T08:03:22.117Z,60.40
2023-02-13T08:05:50.406Z,60.50
2023-02-13T08:08:19.821Z,60.30
2023-02-13T08:11:05.373Z,60.00
2023-02-13T08:13:33.629Z,59.90
2023-02-13T08:16:01.803Z,59.30
2023-02-13T08:18:29.813Z,59.30
2023-02-13T08:20:57.813Z,58.80
2023-02-13T08:23:27.254Z,58.80
2023-02-13T08:25:55.987Z,58.70
2023-02-13T08:28:24.458Z,58.90
2023-02-13T08:30:52.533Z,58.40
2023-02-13T08:33:20.705Z,57.70
2023-02-13T08:35:48.719Z,57.20
2023-02-13T08:38:16.856Z,56.50
2023-02-13T08:40:46.202Z,54.50
2023-02-13T08:43:14.294Z,54.60
2023-02-13T08:45:42.445Z,54.20
2023-02-13T08:48:10.592Z,52.80
2023-02-13T08:50:38.508Z,52.30
2023-02-13T08:53:07.015Z,51.90
2023-02-13T08:55:35.158Z,50.80
2023-02-13T08:58:05.416Z,50.60
2023-02-13T09:00:33.861Z,50.40
2023-02-13T09:03:03.066Z,50.30
2023-02-13T09:05:32.472Z,49.50
2023-02-13T09:08:01.109Z,49.30
2023-02-13T09:10:29.191Z,49.20
2023-02-13T09:12:57.141Z,49.00
2023-02-13T09:15:26.518Z,47.50
2023-02-13T09:17:54.555Z,47.10
2023-02-13T09:20:22.622Z,46.60
2023-02-13T09:22:50.697Z,46.10
2023-02-13T09:25:20.358Z,46.20
2023-02-13T09:27:48.281Z,45.90
2023-02-13T09:30:23.274Z,47.00
2023-02-13T09:32:53.273Z,47.70
2023-02-13T09:35:21.712Z,47.10
2023-02-13T09:37:49.766Z,47.50
2023-02-13T09:40:19.297Z,46.90
2023-02-13T09:42:48.021Z,46.30
2023-02-13T09:45:18.172Z,47.30
2023-02-13T09:47:46.277Z,45.60
2023-02-13T09:50:17.479Z,44.50
2023-02-13T09:52:46.710Z,46.20
2023-02-13T09:55:16.436Z,45.10
2023-02-13T09:57:47.680Z,44.60
2023-02-13T10:00:18.557Z,44.70
2023-02-13T10:02:55.645Z,44.90
2023-02-13T10:05:33.938Z,44.80
2023-02-13T10:08:06.843Z,44.80
2023-02-13T10:10:43.591Z,44.90
2023-02-13T10:13:23.678Z,43.60
2023-02-13T10:15:55.492Z,43.60
2023-02-13T10:18:26.369Z,43.00
2023-02-13T10:20:57.920Z,44.10
2023-02-13T10:23:28.175Z,43.50
2023-02-13T10:25:58.743Z,43.50
2023-02-13T10:28:33.485Z,43.20
2023-02-13T10:31:05.272Z,43.00
2023-02-13T10:33:35.340Z,42.70
2023-02-13T10:36:08.475Z,40.30
2023-02-13T10:38:39.429Z,41.70
2023-02-13T10:41:19.387Z,42.10
2023-02-13T10:43:51.351Z,41.80
2023-02-13T10:46:23.411Z,40.40
2023-02-13T10:49:02.620Z,40.20
2023-02-13T10:51:36.032Z,39.90
2023-02-13T10:54:14.511Z,40.20
2023-02-13T10:56:45.178Z,39.90
2023-02-13T10:59:22.771Z,38.90
2023-02-13T11:01:54.614Z,38.70
2023-02-13T11:04:23.157Z,38.00
2023-02-13T11:06:56.431Z,38.90
2023-02-13T11:09:24.578Z,39.20
2023-02-13T11:11:53.220Z,38.70
2023-02-13T11:14:22.413Z,37.40
2023-02-13T11:16:53.750Z,37.80
2023-02-13T11:19:24.583Z,37.20
2023-02-13T11:21:56.540Z,36.50
2023-02-13T11:24:25.399Z,35.90
2023-02-13T11:26:54.797Z,36.20
2023-02-13T11:29:25.069Z,35.10
2023-02-13T11:32:04.264Z,35.20
2023-02-13T11:34:33.253Z,35.50
2023-02-13T11:37:22.874Z,34.00
2023-02-13T11:39:52.017Z,34.00
2023-02-13T11:42:22.853Z,34.00
2023-02-13T11:44:52.611Z,34.20
2023-02-13T11:47:31.916Z,34.30
2023-02-13T11:50:00.076Z,32.90
2023-02-13T11:52:30.409Z,33.70
2023-02-13T11:54:59.054Z,34.00
2023-02-13T11:57:30.566Z,34.60
2023-02-13T11:59:59.475Z,32.90
2023-02-13T12:02:28.255Z,33.50
2023-02-13T12:05:13.841Z,32.20
2023-02-13T12:07:43.853Z,33.00
2023-02-13T12:10:18.453Z,33.30
2023-02-13T12:12:47.518Z,31.50
2023-02-13T12:15:18.447Z,32.60
2023-02-13T12:17:47.741Z,32.70
2023-02-13T12:20:16.936Z,32.10
2023-02-13T12:22:54.274Z,31.90
2023-02-13T12:25:35.229Z,31.50
2023-02-13T12:28:12.577Z,29.80
2023-02-13T12:30:55.683Z,30.50
2023-02-13T12:33:35.210Z,30.00
2023-02-13T12:36:08.214Z,29.80
2023-02-13T12:38:43.198Z,30.00
2023-02-13T12:41:15.494Z,29.20
2023-02-13T12:44:06.487Z,29.90
2023-02-13T12:46:39.961Z,30.00
2023-02-13T12:49:19.278Z,29.60
2023-02-13T12:51:52.902Z,29.30
2023-02-13T12:54:29.947Z,29.50
2023-02-13T12:57:03.597Z,29.70
2023-02-13T12:59:38.011Z,30.50
2023-02-13T13:02:27.150Z,29.10
2023-02-13T13:05:03.218Z,29.40
2023-02-13T13:07:45.189Z,29.20
2023-02-13T13:10:21.406Z,28.40
2023-02-13T13:12:53.024Z,28.00
2023-02-13T13:15:26.865Z,28.60
2023-02-13T13:18:02.095Z,28.50
2023-02-13T13:20:46.833Z,28.10
2023-02-13T13:23:19.376Z,27.50
2023-02-13T13:25:56.051Z,26.90
2023-02-13T13:28:25.966Z,26.60
2023-02-13T13:30:54.791Z,26.80
2023-02-13T13:33:25.231Z,27.40
2023-02-13T13:35:57.259Z,26.90
2023-02-13T13:38:31.489Z,26.80
2023-02-13T13:41:03.096Z,27.00
2023-02-13T13:43:59.939Z,26.70
2023-02-13T13:46:32.444Z,26.10
2023-02-13T13:49:12.380Z,26.50
2023-02-13T13:51:40.405Z,25.90
2023-02-13T13:54:20.547Z,26.10
2023-02-13T13:57:12.889Z,26.20
2023-02-13T13:59:59.783Z,26.20
2023-02-13T14:02:35.127Z,26.10
2023-02-13T14:05:04.762Z,26.20
2023-02-13T14:07:35.643Z,25.60
2023-02-13T14:10:04.274Z,25.90
2023-02-13T14:12:47.685Z,27.00
2023-02-13T14:15:34.731Z,26.80
2023-02-13T14:18:04.171Z,26.60
2023-02-13T14:20:36.959Z,26.20
2023-02-13T14:23:23.046Z,25.90
2023-02-13T14:25:52.202Z,26.30
2023-02-13T14:28:24.732Z,25.80
2023-02-13T14:30:56.737Z,26.40
2023-02-13T14:33:26.761Z,26.50
2023-02-13T14:36:01.721Z,25.90
2023-02-13T14:38:30.245Z,25.30
2023-02-13T14:40:58.506Z,25.60
2023-02-13T14:43:36.057Z,25.50
2023-02-13T14:46:19.107Z,25.50
2023-02-13T14:48:48.808Z,25.40
2023-02-13T14:51:28.475Z,25.80
2023-02-13T14:54:00.511Z,25.30
2023-02-13T14:56:30.565Z,25.30
2023-02-13T14:59:02.730Z,24.60
2023-02-13T15:01:33.548Z,25.10
2023-02-13T15:04:06.717Z,25.00
2023-02-13T15:06:36.615Z,25.40
2023-02-13T15:09:06.234Z,25.80
2023-02-13T15:11:38.103Z,26.30
2023-02-13T15:14:25.684Z,26.20
2023-02-13T15:16:56.037Z,26.00
2023-02-13T15:19:45.241Z,25.90
2023-02-13T15:22:33.749Z,26.80
2023-02-13T15:25:02.008Z,27.00
2023-02-13T15:27:31.794Z,27.10
2023-02-13T15:30:03.469Z,27.30
2023-02-13T15:32:33.099Z,26.90
2023-02-13T15:35:01.515Z,27.00
2023-02-13T15:37:30.452Z,27.20
2023-02-13T15:40:15.218Z,26.80
2023-02-13T15:42:43.441Z,26.80
2023-02-13T15:45:18.438Z,26.10
2023-02-13T15:47:47.436Z,26.10
2023-02-13T15:50:19.566Z,27.00
2023-02-13T15:52:48.277Z,26.90
2023-02-13T15:55:20.919Z,26.90
2023-02-13T15:57:49.146Z,26.80
2023-02-13T16:00:21.731Z,27.50
2023-02-13T16:02:50.318Z,27.30
2023-02-13T16:05:29.401Z,27.20
2023-02-13T16:08:25.738Z,26.90
2023-02-13T16:11:08.740Z,27.40
2023-02-13T16:13:36.861Z,27.70
2023-02-13T16:16:10.784Z,27.80
2023-02-13T16:18:41.059Z,27.90
2023-02-13T16:21:10.306Z,28.00
2023-02-13T16:23:38.523Z,28.40
2023-02-13T16:26:11.778Z,28.30
2023-02-13T16:28:39.943Z,28.50
2023-02-13T16:31:08.525Z,28.30
2023-02-13T16:33:38.889Z,28.40
2023-02-13T16:36:18.570Z,28.30
2023-02-13T16:38:47.139Z,28.10
2023-02-13T16:41:30.613Z,28.30
2023-02-13T16:43:59.000Z,28.40
2023-02-13T16:46:34.134Z,28.30
2023-02-13T16:49:14.502Z,28.50
2023-02-13T16:51:43.742Z,27.50
2023-02-13T16:54:20.348Z,28.40
2023-02-13T16:56:50.251Z,29.40
2023-02-13T16:59:23.387Z,29.30
2023-02-13T17:02:03.501Z,29.10
2023-02-13T17:04:32.923Z,29.40
2023-02-13T17:07:02.032Z,30.20
2023-02-13T17:09:30.161Z,30.00
2023-02-13T17:11:59.211Z,29.30
2023-02-13T17:14:27.306Z,30.60
2023-02-13T17:16:55.520Z,31.50
2023-02-13T17:19:23.942Z,31.00
2023-02-13T17:21:54.694Z,30.50
2023-02-13T17:24:23.824Z,31.50
2023-02-13T17:26:52.939Z,32.70
2023-02-13T17:29:20.989Z,33.30
2023-02-13T17:31:50.692Z,33.30
2023-02-13T17:34:18.776Z,33.20
2023-02-13T17:36:46.972Z,33.20
2023-02-13T17:39:16.581Z,33.30
2023-02-13T17:41:44.756Z,32.00
2023-02-13T17:44:14.636Z,31.20
2023-02-13T17:46:44.078Z,31.60
2023-02-13T17:49:14.399Z,31.40
2023-02-13T17:51:45.018Z,32.20
2023-02-13T17:54:16.242Z,32.40
2023-02-13T17:56:45.368Z,32.90
2023-02-13T17:59:13.472Z,32.80
2023-02-13T18:01:41.538Z,32.70
2023-02-13T18:04:09.805Z,33.20
2023-02-13T18:06:37.805Z,32.70
2023-02-13T18:09:05.843Z,30.70
2023-02-13T18:11:35.375Z,32.30
2023-02-13T18:14:03.403Z,33.90
2023-02-13T18:16:32.157Z,33.90
2023-02-13T18:19:00.232Z,34.00
2023-02-13T18:21:28.331Z,36.20
2023-02-13T18:23:56.405Z,35.80
2023-02-13T18:26:24.684Z,35.90
2023-02-13T18:28:54.332Z,36.30
2023-02-13T18:31:23.459Z,35.80
2023-02-13T18:33:51.623Z,35.50
2023-02-13T18:36:19.617Z,35.30
2023-02-13T18:38:47.662Z,35.20
2023-02-13T18:41:15.766Z,34.10
2023-02-13T18:43:44.397Z,33.30
2023-02-13T18:46:13.995Z,33.00
2023-02-13T18:48:41.973Z,32.90
2023-02-13T18:51:10.001Z,33.30
2023-02-13T18:53:38.031Z,34.00
2023-02-13T18:56:07.013Z,34.40
2023-02-13T18:58:37.833Z,34.60
2023-02-13T19:01:06.826Z,34.50
2023-02-13T19:03:36.578Z,35.20
2023-02-13T19:06:06.845Z,35.40
2023-02-13T19:08:35.928Z,35.20
2023-02-13T19:11:05.424Z,36.00
2023-02-13T19:13:33.718Z,35.40
2023-02-13T19:16:04.621Z,35.50
2023-02-13T19:18:32.624Z,35.90
2023-02-13T19:21:02.448Z,33.50
2023-02-13T19:23:30.720Z,35.10
2023-02-13T19:25:58.655Z,33.10
2023-02-13T19:28:26.672Z,35.00
2023-02-13T19:30:54.981Z,35.80
2023-02-13T19:33:23.093Z,37.20
2023-02-13T19:35:57.980Z,37.30
2023-02-13T19:38:27.648Z,35.90
2023-02-13T19:40:55.972Z,34.80
2023-02-13T19:43:24.296Z,35.30
2023-02-13T19:45:52.378Z,35.80
2023-02-13T19:48:21.410Z,35.80
2023-02-13T19:50:49.720Z,34.10
2023-02-13T19:53:17.683Z,35.70
2023-02-13T19:55:47.200Z,36.20
2023-02-13T19:58:15.784Z,36.60
2023-02-13T20:00:43.787Z,36.90
2023-02-13T20:03:11.841Z,36.90
2023-02-13T20:05:40.948Z,36.30
2023-02-13T20:08:09.092Z,36.70
2023-02-13T20:10:37.253Z,36.60
2023-02-13T20:13:09.200Z,37.00
2023-02-13T20:15:39.956Z,38.40
2023-02-13T20:18:07.971Z,38.80
2023-02-13T20:20:36.018Z,39.60
2023-02-13T20:23:04.264Z,40.40
2023-02-13T20:25:33.751Z,41.40
2023-02-13T20:28:01.735Z,41.30
2023-02-13T20:30:31.228Z,42.20
2023-02-13T20:32:59.551Z,42.00
2023-02-13T20:35:27.729Z,42.40
2023-02-13T20:37:55.881Z,42.40
2023-02-13T20:40:24.175Z,41.60
2023-02-13T20:42:52.663Z,41.20
2023-02-13T20:45:20.642Z,40.90
2023-02-13T20:47:50.163Z,40.80
2023-02-13T20:50:18.627Z,40.30
2023-02-13T20:52:46.787Z,40.50
2023-02-13T20:55:14.911Z,40.50
2023-02-13T20:57:43.262Z,40.40
2023-02-13T21:00:13.319Z,40.30
2023-02-13T21:02:42.291Z,40.00
2023-02-13T21:05:12.005Z,40.20
2023-02-13T21:07:40.221Z,40.40
2023-02-13T21:10:08.689Z,40.50
2023-02-13T21:12:36.851Z,40.10
2023-02-13T21:15:05.119Z,40.30
2023-02-13T21:17:33.141Z,40.00
2023-02-13T21:20:01.236Z,40.80
2023-02-13T21:22:30.869Z,41.10
2023-02-13T21:24:59.015Z,40.70
2023-02-13T21:27:28.260Z,39.90
2023-02-13T21:29:56.448Z,39.30
2023-02-13T21:32:24.571Z,38.60
2023-02-13T21:34:55.399Z,38.50
2023-02-13T21:37:23.416Z,38.10
2023-02-13T21:39:52.893Z,37.60
2023-02-13T21:42:21.221Z,37.30
2023-02-13T21:44:49.245Z,37.60
2023-02-13T21:47:18.487Z,36.70
2023-02-13T21:49:48.791Z,35.90
2023-02-13T21:52:18.324Z,35.70
2023-02-13T21:54:46.366Z,35.80
2023-02-13T21:57:15.812Z,36.90
2023-02-13T21:59:43.851Z,36.80
2023-02-13T22:02:12.213Z,36.80
2023-02-13T22:04:41.756Z,36.60
2023-02-13T22:07:09.687Z,37.80
2023-02-13T22:09:37.786Z,38.60
2023-02-13T22:12:06.121Z,38.80
2023-02-13T22:14:35.578Z,38.60
2023-02-13T22:17:03.610Z,38.40
2023-02-13T22:19:31.925Z,37.70
2023-02-13T22:21:59.990Z,38.80
2023-02-13T22:24:28.431Z,38.40
2023-02-13T22:26:56.812Z,36.30
2023-02-13T22:29:27.004Z,36.10
2023-02-13T22:31:56.608Z,38.20
2023-02-13T22:34:24.750Z,38.70
2023-02-13T22:36:52.847Z,40.00
2023-02-13T22:39:20.860Z,40.10
2023-02-13T22:41:48.995Z,41.10
2023-02-13T22:44:17.065Z,40.30
2023-02-13T22:46:45.378Z,40.70
2023-02-13T22:49:14.816Z,39.50
2023-02-13T22:51:42.924Z,40.80
2023-02-13T22:54:11.484Z,40.20
2023-02-13T22:56:39.583Z,40.60
2023-02-13T22:59:07.586Z,40.90
2023-02-13T23:01:35.640Z,40.10
2023-02-13T23:04:03.805Z,40.90
2023-02-13T23:06:34.050Z,41.80
2023-02-13T23:09:02.272Z,41.50
2023-02-13T23:11:48.063Z,42.30
2023-02-13T23:14:16.318Z,41.90
2023-02-13T23:17:02.036Z,41.20
2023-02-13T23:19:30.691Z,40.50
2023-02-13T23:22:00.365Z,41.10
2023-02-13T23:24:28.511Z,41.20
2023-02-13T23:26:56.723Z,40.50
2023-02-13T23:29:24.773Z,40.50
2023-02-13T23:31:53.173Z,40.60
2023-02-13T23:34:21.772Z,40.60
2023-02-13T23:36:50.010Z,40.60
2023-02-13T23:39:19.942Z,41.50
2023-02-13T23:41:48.151Z,39.90
2023-02-13T23:44:16.341Z,39.50
2023-02-13T23:46:44.440Z,38.40
2023-02-13T23:49:12.600Z,39.30
2023-02-13T23:51:40.566Z,40.50
2023-02-13T23:54:08.557Z,41.10
2023-02-13T23:56:37.958Z,41.70
2023-02-13T23:59:05.973Z,42.10
